sensor_id;sensor_type;location;lat;lon;timestamp;P1;durP1;ratioP1;P2;durP2;ratioP2
64915;SDS011;51427;-27.442;153.014;2023-01-28T00:01:15;2.15;;;1.20;;
64915;SDS011;51427;-27.442;153.014;2023-01-28T00:03:42;2.17;;;1.10;;
64915;SDS011;51427;-27.442;153.014;2023-01-28T00:06:12;1.42;;;1.33;;
64915;SDS011;51427;-27.442;153.014;2023-01-28T00:08:39;2.55;;;1.73;;
64915;SDS011;51427;-27.442;153.014;2023-01-28T00:11:06;3.88;;;1.98;;
64915;SDS011;51427;-27.442;153.014;2023-01-28T00:13:33;3.47;;;1.52;;
64915;SDS011;51427;-27.442;153.014;2023-01-28T00:16:01;3.28;;;1.48;;
64915;SDS011;51427;-27.442;153.014;2023-01-28T00:18:29;1.70;;;1.33;;
64915;SDS011;51427;-27.442;153.014;2023-01-28T00:23:27;5.72;;;3.53;;
64915;SDS011;51427;-27.442;153.014;2023-01-28T00:25:56;3.75;;;2.20;;
64915;SDS011;51427;-27.442;153.014;2023-01-28T00:28:23;1.40;;;1.30;;
64915;SDS011;51427;-27.442;153.014;2023-01-28T00:30:49;2.53;;;1.60;;
64915;SDS011;51427;-27.442;153.014;2023-01-28T00:33:16;2.40;;;1.60;;
64915;SDS011;51427;-27.442;153.014;2023-01-28T00:35:42;2.92;;;2.42;;
64915;SDS011;51427;-27.442;153.014;2023-01-28T00:38:09;6.07;;;2.67;;
64915;SDS011;51427;-27.442;153.014;2023-01-28T00:40:35;2.30;;;1.75;;
64915;SDS011;51427;-27.442;153.014;2023-01-28T00:43:02;4.60;;;2.67;;
64915;SDS011;51427;-27.442;153.014;2023-01-28T00:45:28;6.03;;;2.50;;
64915;SDS011;51427;-27.442;153.014;2023-01-28T00:47:55;2.22;;;1.50;;
64915;SDS011;51427;-27.442;153.014;2023-01-28T00:50:21;2.67;;;1.50;;
64915;SDS011;51427;-27.442;153.014;2023-01-28T00:52:48;2.42;;;1.42;;
64915;SDS011;51427;-27.442;153.014;2023-01-28T00:55:14;4.55;;;1.67;;
64915;SDS011;51427;-27.442;153.014;2023-01-28T00:57:42;5.45;;;1.70;;
64915;SDS011;51427;-27.442;153.014;2023-01-28T01:00:08;3.70;;;1.75;;
64915;SDS011;51427;-27.442;153.014;2023-01-28T01:02:35;3.33;;;1.60;;
64915;SDS011;51427;-27.442;153.014;2023-01-28T01:05:01;3.30;;;1.75;;
64915;SDS011;51427;-27.442;153.014;2023-01-28T01:07:28;1.83;;;1.20;;
64915;SDS011;51427;-27.442;153.014;2023-01-28T01:10:09;3.30;;;1.60;;
64915;SDS011;51427;-27.442;153.014;2023-01-28T01:12:36;2.80;;;1.40;;
64915;SDS011;51427;-27.442;153.014;2023-01-28T01:15:03;2.22;;;1.85;;
64915;SDS011;51427;-27.442;153.014;2023-01-28T01:17:33;1.80;;;1.70;;
64915;SDS011;51427;-27.442;153.014;2023-01-28T01:20:02;3.25;;;1.55;;
64915;SDS011;51427;-27.442;153.014;2023-01-28T01:22:31;4.53;;;1.50;;
64915;SDS011;51427;-27.442;153.014;2023-01-28T01:24:58;4.93;;;1.52;;
64915;SDS011;51427;-27.442;153.014;2023-01-28T01:27:24;2.72;;;1.75;;
64915;SDS011;51427;-27.442;153.014;2023-01-28T01:29:51;1.65;;;1.52;;
64915;SDS011;51427;-27.442;153.014;2023-01-28T01:32:17;2.75;;;1.67;;
64915;SDS011;51427;-27.442;153.014;2023-01-28T01:34:45;2.17;;;1.70;;
64915;SDS011;51427;-27.442;153.014;2023-01-28T01:37:11;2.55;;;1.58;;
64915;SDS011;51427;-27.442;153.014;2023-01-28T01:39:37;2.38;;;1.55;;
64915;SDS011;51427;-27.442;153.014;2023-01-28T01:42:04;2.78;;;1.55;;
64915;SDS011;51427;-27.442;153.014;2023-01-28T01:47:15;5.57;;;1.80;;
64915;SDS011;51427;-27.442;153.014;2023-01-28T01:49:43;1.58;;;1.48;;
64915;SDS011;51427;-27.442;153.014;2023-01-28T01:52:11;1.98;;;1.50;;
64915;SDS011;51427;-27.442;153.014;2023-01-28T01:54:38;2.70;;;1.70;;
64915;SDS011;51427;-27.442;153.014;2023-01-28T01:57:06;2.65;;;1.50;;
64915;SDS011;51427;-27.442;153.014;2023-01-28T01:59:35;2.47;;;1.60;;
64915;SDS011;51427;-27.442;153.014;2023-01-28T02:02:02;1.58;;;1.40;;
64915;SDS011;51427;-27.442;153.014;2023-01-28T02:04:30;2.85;;;1.63;;
64915;SDS011;51427;-27.442;153.014;2023-01-28T02:06:57;1.50;;;1.40;;
64915;SDS011;51427;-27.442;153.014;2023-01-28T02:11:52;1.40;;;1.30;;
64915;SDS011;51427;-27.442;153.014;2023-01-28T02:14:20;1.30;;;1.20;;
64915;SDS011;51427;-27.442;153.014;2023-01-28T02:16:48;2.20;;;1.40;;
64915;SDS011;51427;-27.442;153.014;2023-01-28T02:19:15;2.80;;;1.45;;
64915;SDS011;51427;-27.442;153.014;2023-01-28T02:24:18;2.47;;;1.60;;
64915;SDS011;51427;-27.442;153.014;2023-01-28T02:26:55;1.92;;;1.08;;
64915;SDS011;51427;-27.442;153.014;2023-01-28T02:31:53;2.30;;;1.30;;
64915;SDS011;51427;-27.442;153.014;2023-01-28T02:34:33;1.38;;;1.20;;
64915;SDS011;51427;-27.442;153.014;2023-01-28T02:39:34;2.03;;;1.25;;
64915;SDS011;51427;-27.442;153.014;2023-01-28T02:42:03;2.08;;;1.02;;
64915;SDS011;51427;-27.442;153.014;2023-01-28T02:44:31;1.50;;;1.00;;
64915;SDS011;51427;-27.442;153.014;2023-01-28T02:46:58;1.13;;;1.05;;
64915;SDS011;51427;-27.442;153.014;2023-01-28T02:49:47;2.67;;;1.10;;
64915;SDS011;51427;-27.442;153.014;2023-01-28T02:54:53;2.28;;;1.10;;
64915;SDS011;51427;-27.442;153.014;2023-01-28T03:00:17;1.88;;;0.95;;
64915;SDS011;51427;-27.442;153.014;2023-01-28T03:05:16;1.95;;;1.20;;
64915;SDS011;51427;-27.442;153.014;2023-01-28T03:07:47;2.95;;;1.08;;
64915;SDS011;51427;-27.442;153.014;2023-01-28T03:10:15;1.40;;;1.05;;
64915;SDS011;51427;-27.442;153.014;2023-01-28T03:12:43;2.45;;;1.23;;
64915;SDS011;51427;-27.442;153.014;2023-01-28T03:15:28;0.70;;;0.70;;
64915;SDS011;51427;-27.442;153.014;2023-01-28T03:23:48;1.45;;;0.80;;
64915;SDS011;51427;-27.442;153.014;2023-01-28T03:26:36;2.22;;;0.90;;
64915;SDS011;51427;-27.442;153.014;2023-01-28T03:29:21;1.30;;;1.08;;
64915;SDS011;51427;-27.442;153.014;2023-01-28T03:32:07;1.88;;;1.05;;
64915;SDS011;51427;-27.442;153.014;2023-01-28T03:34:52;2.67;;;1.25;;
64915;SDS011;51427;-27.442;153.014;2023-01-28T03:37:36;1.73;;;0.80;;
64915;SDS011;51427;-27.442;153.014;2023-01-28T03:40:04;1.30;;;0.70;;
64915;SDS011;51427;-27.442;153.014;2023-01-28T03:42:31;1.50;;;0.80;;
64915;SDS011;51427;-27.442;153.014;2023-01-28T03:44:57;2.58;;;0.90;;
64915;SDS011;51427;-27.442;153.014;2023-01-28T03:47:26;1.30;;;0.90;;
64915;SDS011;51427;-27.442;153.014;2023-01-28T03:49:54;1.50;;;0.82;;
64915;SDS011;51427;-27.442;153.014;2023-01-28T03:52:25;1.77;;;0.70;;
64915;SDS011;51427;-27.442;153.014;2023-01-28T03:54:52;1.63;;;0.80;;
64915;SDS011;51427;-27.442;153.014;2023-01-28T03:57:19;2.25;;;1.25;;
64915;SDS011;51427;-27.442;153.014;2023-01-28T03:59:47;1.00;;;0.90;;
64915;SDS011;51427;-27.442;153.014;2023-01-28T04:02:18;2.47;;;1.00;;
64915;SDS011;51427;-27.442;153.014;2023-01-28T04:04:44;1.52;;;0.80;;
64915;SDS011;51427;-27.442;153.014;2023-01-28T04:07:11;2.55;;;1.05;;
64915;SDS011;51427;-27.442;153.014;2023-01-28T04:09:41;2.25;;;1.00;;
64915;SDS011;51427;-27.442;153.014;2023-01-28T04:12:08;2.92;;;1.00;;
64915;SDS011;51427;-27.442;153.014;2023-01-28T04:14:35;1.38;;;1.27;;
64915;SDS011;51427;-27.442;153.014;2023-01-28T04:17:01;1.10;;;0.90;;
64915;SDS011;51427;-27.442;153.014;2023-01-28T04:19:28;2.60;;;1.00;;
64915;SDS011;51427;-27.442;153.014;2023-01-28T04:21:56;1.70;;;1.00;;
64915;SDS011;51427;-27.442;153.014;2023-01-28T04:24:22;2.35;;;0.82;;
64915;SDS011;51427;-27.442;153.014;2023-01-28T04:26:49;1.48;;;0.93;;
64915;SDS011;51427;-27.442;153.014;2023-01-28T04:29:15;1.17;;;1.13;;
64915;SDS011;51427;-27.442;153.014;2023-01-28T04:31:42;1.38;;;1.08;;
64915;SDS011;51427;-27.442;153.014;2023-01-28T04:34:08;1.80;;;0.70;;
64915;SDS011;51427;-27.442;153.014;2023-01-28T04:36:35;0.95;;;0.95;;
64915;SDS011;51427;-27.442;153.014;2023-01-28T04:39:02;1.58;;;1.20;;
64915;SDS011;51427;-27.442;153.014;2023-01-28T04:41:28;4.57;;;1.27;;
64915;SDS011;51427;-27.442;153.014;2023-01-28T04:43:55;3.40;;;0.98;;
64915;SDS011;51427;-27.442;153.014;2023-01-28T04:46:21;1.10;;;1.00;;
64915;SDS011;51427;-27.442;153.014;2023-01-28T04:48:48;4.60;;;1.45;;
64915;SDS011;51427;-27.442;153.014;2023-01-28T04:51:14;1.98;;;1.42;;
64915;SDS011;51427;-27.442;153.014;2023-01-28T04:53:41;3.92;;;1.25;;
64915;SDS011;51427;-27.442;153.014;2023-01-28T04:56:07;3.90;;;1.35;;
64915;SDS011;51427;-27.442;153.014;2023-01-28T04:58:34;1.73;;;1.35;;
64915;SDS011;51427;-27.442;153.014;2023-01-28T05:01:01;3.33;;;1.27;;
64915;SDS011;51427;-27.442;153.014;2023-01-28T05:03:27;2.90;;;1.17;;
64915;SDS011;51427;-27.442;153.014;2023-01-28T05:05:54;1.42;;;1.33;;
64915;SDS011;51427;-27.442;153.014;2023-01-28T05:08:20;2.25;;;1.40;;
64915;SDS011;51427;-27.442;153.014;2023-01-28T05:10:47;3.72;;;1.58;;
64915;SDS011;51427;-27.442;153.014;2023-01-28T05:13:13;2.58;;;1.50;;
64915;SDS011;51427;-27.442;153.014;2023-01-28T05:15:40;2.80;;;1.52;;
64915;SDS011;51427;-27.442;153.014;2023-01-28T05:18:06;3.83;;;1.60;;
64915;SDS011;51427;-27.442;153.014;2023-01-28T05:20:33;3.72;;;1.40;;
64915;SDS011;51427;-27.442;153.014;2023-01-28T05:22:59;3.40;;;1.40;;
64915;SDS011;51427;-27.442;153.014;2023-01-28T05:25:26;2.97;;;1.30;;
64915;SDS011;51427;-27.442;153.014;2023-01-28T05:27:52;2.58;;;1.15;;
64915;SDS011;51427;-27.442;153.014;2023-01-28T05:30:19;3.53;;;1.45;;
64915;SDS011;51427;-27.442;153.014;2023-01-28T05:32:46;2.70;;;1.52;;
64915;SDS011;51427;-27.442;153.014;2023-01-28T05:35:12;2.17;;;1.42;;
64915;SDS011;51427;-27.442;153.014;2023-01-28T05:37:39;3.05;;;1.13;;
64915;SDS011;51427;-27.442;153.014;2023-01-28T05:40:05;4.78;;;1.45;;
64915;SDS011;51427;-27.442;153.014;2023-01-28T05:42:32;1.95;;;1.27;;
64915;SDS011;51427;-27.442;153.014;2023-01-28T05:44:58;3.20;;;1.35;;
64915;SDS011;51427;-27.442;153.014;2023-01-28T05:47:25;2.75;;;1.10;;
64915;SDS011;51427;-27.442;153.014;2023-01-28T05:49:52;2.45;;;1.08;;
64915;SDS011;51427;-27.442;153.014;2023-01-28T05:52:18;3.33;;;1.48;;
64915;SDS011;51427;-27.442;153.014;2023-01-28T05:54:45;2.92;;;1.15;;
64915;SDS011;51427;-27.442;153.014;2023-01-28T05:57:11;1.02;;;0.68;;
64915;SDS011;51427;-27.442;153.014;2023-01-28T05:59:38;2.20;;;0.93;;
64915;SDS011;51427;-27.442;153.014;2023-01-28T06:02:04;3.75;;;1.23;;
64915;SDS011;51427;-27.442;153.014;2023-01-28T06:04:31;4.85;;;1.25;;
64915;SDS011;51427;-27.442;153.014;2023-01-28T06:06:57;6.30;;;1.75;;
64915;SDS011;51427;-27.442;153.014;2023-01-28T06:09:23;1.13;;;1.00;;
64915;SDS011;51427;-27.442;153.014;2023-01-28T06:11:50;2.75;;;1.13;;
64915;SDS011;51427;-27.442;153.014;2023-01-28T06:14:16;2.05;;;1.40;;
64915;SDS011;51427;-27.442;153.014;2023-01-28T06:16:43;2.08;;;0.90;;
64915;SDS011;51427;-27.442;153.014;2023-01-28T06:19:10;1.90;;;1.23;;
64915;SDS011;51427;-27.442;153.014;2023-01-28T06:21:36;2.35;;;1.20;;
64915;SDS011;51427;-27.442;153.014;2023-01-28T06:24:03;2.63;;;1.20;;
64915;SDS011;51427;-27.442;153.014;2023-01-28T06:26:29;2.10;;;1.20;;
64915;SDS011;51427;-27.442;153.014;2023-01-28T06:28:56;3.30;;;1.20;;
64915;SDS011;51427;-27.442;153.014;2023-01-28T06:31:22;2.40;;;1.40;;
64915;SDS011;51427;-27.442;153.014;2023-01-28T06:33:48;2.95;;;1.02;;
64915;SDS011;51427;-27.442;153.014;2023-01-28T06:36:15;2.00;;;1.20;;
64915;SDS011;51427;-27.442;153.014;2023-01-28T06:38:41;3.25;;;1.38;;
64915;SDS011;51427;-27.442;153.014;2023-01-28T06:41:08;2.80;;;1.60;;
64915;SDS011;51427;-27.442;153.014;2023-01-28T06:43:34;1.95;;;1.10;;
64915;SDS011;51427;-27.442;153.014;2023-01-28T06:46:01;3.75;;;1.30;;
64915;SDS011;51427;-27.442;153.014;2023-01-28T06:48:27;4.25;;;1.30;;
64915;SDS011;51427;-27.442;153.014;2023-01-28T06:50:54;1.60;;;1.50;;
64915;SDS011;51427;-27.442;153.014;2023-01-28T06:53:21;2.60;;;1.30;;
64915;SDS011;51427;-27.442;153.014;2023-01-28T06:55:47;1.95;;;1.02;;
64915;SDS011;51427;-27.442;153.014;2023-01-28T06:58:14;1.83;;;1.13;;
64915;SDS011;51427;-27.442;153.014;2023-01-28T07:00:40;3.10;;;1.35;;
64915;SDS011;51427;-27.442;153.014;2023-01-28T07:03:07;3.45;;;1.38;;
64915;SDS011;51427;-27.442;153.014;2023-01-28T07:05:33;3.35;;;1.20;;
64915;SDS011;51427;-27.442;153.014;2023-01-28T07:08:00;3.92;;;1.30;;
64915;SDS011;51427;-27.442;153.014;2023-01-28T07:10:27;1.35;;;0.90;;
64915;SDS011;51427;-27.442;153.014;2023-01-28T07:12:53;2.00;;;1.08;;
64915;SDS011;51427;-27.442;153.014;2023-01-28T07:15:20;3.67;;;1.38;;
64915;SDS011;51427;-27.442;153.014;2023-01-28T07:17:46;1.95;;;1.20;;
64915;SDS011;51427;-27.442;153.014;2023-01-28T07:20:13;4.88;;;1.67;;
64915;SDS011;51427;-27.442;153.014;2023-01-28T07:22:40;3.00;;;1.02;;
64915;SDS011;51427;-27.442;153.014;2023-01-28T07:25:07;2.75;;;1.40;;
64915;SDS011;51427;-27.442;153.014;2023-01-28T07:27:34;2.85;;;1.13;;
64915;SDS011;51427;-27.442;153.014;2023-01-28T07:30:00;2.90;;;1.30;;
64915;SDS011;51427;-27.442;153.014;2023-01-28T07:32:27;2.40;;;1.33;;
64915;SDS011;51427;-27.442;153.014;2023-01-28T07:34:53;4.68;;;1.30;;
64915;SDS011;51427;-27.442;153.014;2023-01-28T07:37:20;3.92;;;1.20;;
64915;SDS011;51427;-27.442;153.014;2023-01-28T07:39:47;2.75;;;1.40;;
64915;SDS011;51427;-27.442;153.014;2023-01-28T07:42:13;2.88;;;0.93;;
64915;SDS011;51427;-27.442;153.014;2023-01-28T07:44:39;3.95;;;1.40;;
64915;SDS011;51427;-27.442;153.014;2023-01-28T07:47:06;4.43;;;1.55;;
64915;SDS011;51427;-27.442;153.014;2023-01-28T07:49:32;3.00;;;1.38;;
64915;SDS011;51427;-27.442;153.014;2023-01-28T07:51:59;2.35;;;1.30;;
64915;SDS011;51427;-27.442;153.014;2023-01-28T07:54:26;2.80;;;1.50;;
64915;SDS011;51427;-27.442;153.014;2023-01-28T07:56:52;3.30;;;1.50;;
64915;SDS011;51427;-27.442;153.014;2023-01-28T07:59:19;2.47;;;1.42;;
64915;SDS011;51427;-27.442;153.014;2023-01-28T08:01:45;4.30;;;1.40;;
64915;SDS011;51427;-27.442;153.014;2023-01-28T08:04:12;4.13;;;1.27;;
64915;SDS011;51427;-27.442;153.014;2023-01-28T08:06:38;5.63;;;1.45;;
64915;SDS011;51427;-27.442;153.014;2023-01-28T08:09:05;4.60;;;1.40;;
64915;SDS011;51427;-27.442;153.014;2023-01-28T08:11:38;1.48;;;1.17;;
64915;SDS011;51427;-27.442;153.014;2023-01-28T08:14:05;2.22;;;1.52;;
64915;SDS011;51427;-27.442;153.014;2023-01-28T08:16:31;1.55;;;1.00;;
64915;SDS011;51427;-27.442;153.014;2023-01-28T08:18:58;3.30;;;1.10;;
64915;SDS011;51427;-27.442;153.014;2023-01-28T08:21:24;3.00;;;1.88;;
64915;SDS011;51427;-27.442;153.014;2023-01-28T08:23:51;5.00;;;1.55;;
64915;SDS011;51427;-27.442;153.014;2023-01-28T08:26:19;3.67;;;1.40;;
64915;SDS011;51427;-27.442;153.014;2023-01-28T08:28:45;5.53;;;1.55;;
64915;SDS011;51427;-27.442;153.014;2023-01-28T08:31:12;2.78;;;1.80;;
64915;SDS011;51427;-27.442;153.014;2023-01-28T08:33:38;3.13;;;1.40;;
64915;SDS011;51427;-27.442;153.014;2023-01-28T08:36:05;3.83;;;1.40;;
64915;SDS011;51427;-27.442;153.014;2023-01-28T08:38:31;5.30;;;1.40;;
64915;SDS011;51427;-27.442;153.014;2023-01-28T08:40:58;3.40;;;1.45;;
64915;SDS011;51427;-27.442;153.014;2023-01-28T08:43:25;3.50;;;1.60;;
64915;SDS011;51427;-27.442;153.014;2023-01-28T08:45:51;5.68;;;1.70;;
64915;SDS011;51427;-27.442;153.014;2023-01-28T08:48:18;3.08;;;1.30;;
64915;SDS011;51427;-27.442;153.014;2023-01-28T08:50:44;3.80;;;1.60;;
64915;SDS011;51427;-27.442;153.014;2023-01-28T08:53:15;2.67;;;1.30;;
64915;SDS011;51427;-27.442;153.014;2023-01-28T08:55:42;2.47;;;1.50;;
64915;SDS011;51427;-27.442;153.014;2023-01-28T08:58:12;4.45;;;1.50;;
64915;SDS011;51427;-27.442;153.014;2023-01-28T09:00:39;1.98;;;1.30;;
64915;SDS011;51427;-27.442;153.014;2023-01-28T09:03:06;3.03;;;1.52;;
64915;SDS011;51427;-27.442;153.014;2023-01-28T09:05:33;2.95;;;1.50;;
64915;SDS011;51427;-27.442;153.014;2023-01-28T09:08:01;5.55;;;1.65;;
64915;SDS011;51427;-27.442;153.014;2023-01-28T09:10:28;4.53;;;1.38;;
64915;SDS011;51427;-27.442;153.014;2023-01-28T09:12:54;2.72;;;1.20;;
64915;SDS011;51427;-27.442;153.014;2023-01-28T09:15:21;1.90;;;1.23;;
64915;SDS011;51427;-27.442;153.014;2023-01-28T09:17:47;3.40;;;1.40;;
64915;SDS011;51427;-27.442;153.014;2023-01-28T09:20:14;5.03;;;1.33;;
64915;SDS011;51427;-27.442;153.014;2023-01-28T09:22:40;5.47;;;1.60;;
64915;SDS011;51427;-27.442;153.014;2023-01-28T09:25:07;3.35;;;1.40;;
64915;SDS011;51427;-27.442;153.014;2023-01-28T09:27:33;3.65;;;1.30;;
64915;SDS011;51427;-27.442;153.014;2023-01-28T09:32:25;6.28;;;1.92;;
64915;SDS011;51427;-27.442;153.014;2023-01-28T09:37:18;3.35;;;1.50;;
64915;SDS011;51427;-27.442;153.014;2023-01-28T09:47:42;3.92;;;1.33;;
64915;SDS011;51427;-27.442;153.014;2023-01-28T09:52:51;2.88;;;1.38;;
64915;SDS011;51427;-27.442;153.014;2023-01-28T09:55:24;4.00;;;1.63;;
64915;SDS011;51427;-27.442;153.014;2023-01-28T09:57:54;2.40;;;1.48;;
64915;SDS011;51427;-27.442;153.014;2023-01-28T10:00:22;5.63;;;1.80;;
64915;SDS011;51427;-27.442;153.014;2023-01-28T10:10:26;2.15;;;1.42;;
64915;SDS011;51427;-27.442;153.014;2023-01-28T10:12:57;2.20;;;1.42;;
64915;SDS011;51427;-27.442;153.014;2023-01-28T10:18:00;2.55;;;1.30;;
64915;SDS011;51427;-27.442;153.014;2023-01-28T10:20:50;3.20;;;1.20;;
64915;SDS011;51427;-27.442;153.014;2023-01-28T10:25:55;1.80;;;1.17;;
64915;SDS011;51427;-27.442;153.014;2023-01-28T10:28:23;3.65;;;1.15;;
64915;SDS011;51427;-27.442;153.014;2023-01-28T10:30:50;3.70;;;1.33;;
64915;SDS011;51427;-27.442;153.014;2023-01-28T10:35:53;2.35;;;1.20;;
64915;SDS011;51427;-27.442;153.014;2023-01-28T10:38:20;2.65;;;1.33;;
64915;SDS011;51427;-27.442;153.014;2023-01-28T10:40:48;4.50;;;1.27;;
64915;SDS011;51427;-27.442;153.014;2023-01-28T10:43:22;1.98;;;1.33;;
64915;SDS011;51427;-27.442;153.014;2023-01-28T10:48:44;2.60;;;1.27;;
64915;SDS011;51427;-27.442;153.014;2023-01-28T10:51:11;2.40;;;1.42;;
64915;SDS011;51427;-27.442;153.014;2023-01-28T10:53:40;3.83;;;1.60;;
64915;SDS011;51427;-27.442;153.014;2023-01-28T10:56:15;2.42;;;1.05;;
64915;SDS011;51427;-27.442;153.014;2023-01-28T10:58:46;2.97;;;1.20;;
64915;SDS011;51427;-27.442;153.014;2023-01-28T11:01:13;3.20;;;1.38;;
64915;SDS011;51427;-27.442;153.014;2023-01-28T11:08:41;3.20;;;1.58;;
64915;SDS011;51427;-27.442;153.014;2023-01-28T11:11:12;2.95;;;1.73;;
64915;SDS011;51427;-27.442;153.014;2023-01-28T11:13:48;3.25;;;1.77;;
64915;SDS011;51427;-27.442;153.014;2023-01-28T11:16:17;1.92;;;1.35;;
64915;SDS011;51427;-27.442;153.014;2023-01-28T11:18:56;3.72;;;1.60;;
64915;SDS011;51427;-27.442;153.014;2023-01-28T11:21:24;3.60;;;1.73;;
64915;SDS011;51427;-27.442;153.014;2023-01-28T11:31:11;5.05;;;1.63;;
64915;SDS011;51427;-27.442;153.014;2023-01-28T11:33:41;2.83;;;1.30;;
64915;SDS011;51427;-27.442;153.014;2023-01-28T11:38:45;1.48;;;1.33;;
64915;SDS011;51427;-27.442;153.014;2023-01-28T11:41:12;3.33;;;1.50;;
64915;SDS011;51427;-27.442;153.014;2023-01-28T11:43:40;4.63;;;1.50;;
64915;SDS011;51427;-27.442;153.014;2023-01-28T11:46:19;2.85;;;1.10;;
64915;SDS011;51427;-27.442;153.014;2023-01-28T11:49:00;4.45;;;1.42;;
64915;SDS011;51427;-27.442;153.014;2023-01-28T11:55:17;1.33;;;1.23;;
64915;SDS011;51427;-27.442;153.014;2023-01-28T12:09:57;3.80;;;1.98;;
64915;SDS011;51427;-27.442;153.014;2023-01-28T12:20:42;10.35;;;2.97;;
64915;SDS011;51427;-27.442;153.014;2023-01-28T12:25:56;3.22;;;2.00;;
64915;SDS011;51427;-27.442;153.014;2023-01-28T12:28:36;3.47;;;1.48;;
64915;SDS011;51427;-27.442;153.014;2023-01-28T12:31:09;6.88;;;2.20;;
64915;SDS011;51427;-27.442;153.014;2023-01-28T12:33:43;4.38;;;2.15;;
64915;SDS011;51427;-27.442;153.014;2023-01-28T12:41:31;5.40;;;2.30;;
64915;SDS011;51427;-27.442;153.014;2023-01-28T12:44:03;7.25;;;2.03;;
64915;SDS011;51427;-27.442;153.014;2023-01-28T12:52:09;6.70;;;2.40;;
64915;SDS011;51427;-27.442;153.014;2023-01-28T12:54:41;4.15;;;2.00;;
64915;SDS011;51427;-27.442;153.014;2023-01-28T12:57:20;4.65;;;1.73;;
64915;SDS011;51427;-27.442;153.014;2023-01-28T12:59:48;2.70;;;1.92;;
64915;SDS011;51427;-27.442;153.014;2023-01-28T13:02:20;5.78;;;1.77;;
64915;SDS011;51427;-27.442;153.014;2023-01-28T13:04:59;4.40;;;1.77;;
64915;SDS011;51427;-27.442;153.014;2023-01-28T13:07:40;4.53;;;1.90;;
64915;SDS011;51427;-27.442;153.014;2023-01-28T13:10:14;5.28;;;2.05;;
64915;SDS011;51427;-27.442;153.014;2023-01-28T13:12:43;4.03;;;1.80;;
64915;SDS011;51427;-27.442;153.014;2023-01-28T13:15:10;2.83;;;1.92;;
64915;SDS011;51427;-27.442;153.014;2023-01-28T13:17:37;5.25;;;2.10;;
64915;SDS011;51427;-27.442;153.014;2023-01-28T13:24:55;4.40;;;1.90;;
64915;SDS011;51427;-27.442;153.014;2023-01-28T13:27:25;3.92;;;2.53;;
64915;SDS011;51427;-27.442;153.014;2023-01-28T13:30:04;2.95;;;2.03;;
64915;SDS011;51427;-27.442;153.014;2023-01-28T13:32:34;4.20;;;2.15;;
64915;SDS011;51427;-27.442;153.014;2023-01-28T13:35:03;5.15;;;2.50;;
64915;SDS011;51427;-27.442;153.014;2023-01-28T13:37:42;5.30;;;2.35;;
64915;SDS011;51427;-27.442;153.014;2023-01-28T13:45:18;5.40;;;2.60;;
64915;SDS011;51427;-27.442;153.014;2023-01-28T13:47:49;4.28;;;2.30;;
64915;SDS011;51427;-27.442;153.014;2023-01-28T13:50:20;2.95;;;2.50;;
64915;SDS011;51427;-27.442;153.014;2023-01-28T13:53:06;7.50;;;2.88;;
64915;SDS011;51427;-27.442;153.014;2023-01-28T13:55:41;4.72;;;2.75;;
64915;SDS011;51427;-27.442;153.014;2023-01-28T13:58:20;4.05;;;2.50;;
64915;SDS011;51427;-27.442;153.014;2023-01-28T14:18:58;4.38;;;2.75;;
64915;SDS011;51427;-27.442;153.014;2023-01-28T14:21:20;5.10;;;2.30;;
64915;SDS011;51427;-27.442;153.014;2023-01-28T14:23:51;4.45;;;2.25;;
64915;SDS011;51427;-27.442;153.014;2023-01-28T14:26:22;3.80;;;2.13;;
64915;SDS011;51427;-27.442;153.014;2023-01-28T14:31:33;5.88;;;2.83;;
64915;SDS011;51427;-27.442;153.014;2023-01-28T14:34:11;4.45;;;2.65;;
64915;SDS011;51427;-27.442;153.014;2023-01-28T14:36:42;7.15;;;2.20;;
64915;SDS011;51427;-27.442;153.014;2023-01-28T14:39:28;3.90;;;2.03;;
64915;SDS011;51427;-27.442;153.014;2023-01-28T14:41:57;5.10;;;2.22;;
64915;SDS011;51427;-27.442;153.014;2023-01-28T14:54:37;3.50;;;2.45;;
64915;SDS011;51427;-27.442;153.014;2023-01-28T14:57:13;6.07;;;2.50;;
64915;SDS011;51427;-27.442;153.014;2023-01-28T14:59:46;4.18;;;2.40;;
64915;SDS011;51427;-27.442;153.014;2023-01-28T15:02:21;7.03;;;2.42;;
64915;SDS011;51427;-27.442;153.014;2023-01-28T15:04:49;5.20;;;2.65;;
64915;SDS011;51427;-27.442;153.014;2023-01-28T15:07:17;4.78;;;2.60;;
64915;SDS011;51427;-27.442;153.014;2023-01-28T15:09:44;2.95;;;2.33;;
64915;SDS011;51427;-27.442;153.014;2023-01-28T15:17:02;5.13;;;2.42;;
64915;SDS011;51427;-27.442;153.014;2023-01-28T15:19:30;8.18;;;2.30;;
64915;SDS011;51427;-27.442;153.014;2023-01-28T15:21:59;4.22;;;2.50;;
64915;SDS011;51427;-27.442;153.014;2023-01-28T15:24:26;5.15;;;2.50;;
64915;SDS011;51427;-27.442;153.014;2023-01-28T15:26:53;4.10;;;2.63;;
64915;SDS011;51427;-27.442;153.014;2023-01-28T15:29:23;6.13;;;2.50;;
64915;SDS011;51427;-27.442;153.014;2023-01-28T15:31:50;4.70;;;2.40;;
64915;SDS011;51427;-27.442;153.014;2023-01-28T15:34:18;6.80;;;2.15;;
64915;SDS011;51427;-27.442;153.014;2023-01-28T15:36:45;3.55;;;2.22;;
64915;SDS011;51427;-27.442;153.014;2023-01-28T15:39:16;4.97;;;2.72;;
64915;SDS011;51427;-27.442;153.014;2023-01-28T15:41:45;5.32;;;2.30;;
64915;SDS011;51427;-27.442;153.014;2023-01-28T15:44:31;5.47;;;2.78;;
64915;SDS011;51427;-27.442;153.014;2023-01-28T15:46:59;7.78;;;3.08;;
64915;SDS011;51427;-27.442;153.014;2023-01-28T15:49:27;5.20;;;2.60;;
64915;SDS011;51427;-27.442;153.014;2023-01-28T15:51:56;5.90;;;2.80;;
64915;SDS011;51427;-27.442;153.014;2023-01-28T15:54:22;2.63;;;2.40;;
64915;SDS011;51427;-27.442;153.014;2023-01-28T15:56:49;3.75;;;2.60;;
64915;SDS011;51427;-27.442;153.014;2023-01-28T15:59:27;6.38;;;2.55;;
64915;SDS011;51427;-27.442;153.014;2023-01-28T16:04:41;6.43;;;2.58;;
64915;SDS011;51427;-27.442;153.014;2023-01-28T16:07:07;3.42;;;2.30;;
64915;SDS011;51427;-27.442;153.014;2023-01-28T16:14:26;2.92;;;1.92;;
64915;SDS011;51427;-27.442;153.014;2023-01-28T16:16:53;4.63;;;2.42;;
64915;SDS011;51427;-27.442;153.014;2023-01-28T16:21:56;5.53;;;2.30;;
64915;SDS011;51427;-27.442;153.014;2023-01-28T16:29:15;4.22;;;1.90;;
64915;SDS011;51427;-27.442;153.014;2023-01-28T16:36:33;5.60;;;2.33;;
64915;SDS011;51427;-27.442;153.014;2023-01-28T16:39:00;4.10;;;2.20;;
64915;SDS011;51427;-27.442;153.014;2023-01-28T16:43:52;3.58;;;2.20;;
64915;SDS011;51427;-27.442;153.014;2023-01-28T16:46:19;4.25;;;2.20;;
64915;SDS011;51427;-27.442;153.014;2023-01-28T16:51:15;3.08;;;2.40;;
64915;SDS011;51427;-27.442;153.014;2023-01-28T16:53:43;3.55;;;2.10;;
64915;SDS011;51427;-27.442;153.014;2023-01-28T16:56:14;7.32;;;2.28;;
64915;SDS011;51427;-27.442;153.014;2023-01-28T16:58:40;3.85;;;2.33;;
64915;SDS011;51427;-27.442;153.014;2023-01-28T17:05:59;3.45;;;2.30;;
64915;SDS011;51427;-27.442;153.014;2023-01-28T17:10:52;5.07;;;2.10;;
64915;SDS011;51427;-27.442;153.014;2023-01-28T17:13:19;4.07;;;2.22;;
64915;SDS011;51427;-27.442;153.014;2023-01-28T17:18:11;4.32;;;2.13;;
64915;SDS011;51427;-27.442;153.014;2023-01-28T17:20:38;2.67;;;2.10;;
64915;SDS011;51427;-27.442;153.014;2023-01-28T17:23:11;4.50;;;2.38;;
64915;SDS011;51427;-27.442;153.014;2023-01-28T17:25:39;5.22;;;2.42;;
64915;SDS011;51427;-27.442;153.014;2023-01-28T17:28:06;3.40;;;2.17;;
64915;SDS011;51427;-27.442;153.014;2023-01-28T17:30:33;3.72;;;2.42;;
64915;SDS011;51427;-27.442;153.014;2023-01-28T17:35:25;5.05;;;2.38;;